Austin (AUS/KAUS)

Information

Location
Austin, TX
Local Time
23:30 / 11:30 pm
GMT Time
05:30 / 5:30 am
Gates
Unassigned
No FAA reported delays
METAR KAUS 260453Z 00000KT 10SM CLR 04/01 A3008 RMK AO2 SLP188 T00440006
TAF KAUS 260453Z 2605/2706 VRB03KT P6SM FEW250 FM261400 13004KT 5SM BR OVC025 FM261700 16007KT 5SM BR VCSH OVC015 FM270100 17005KT 4SM BR OVC007 FM270300 16006KT 2SM BR OVC004
  • No charts available